sensor_id;sensor_type;location;lat;lon;timestamp;pressure;altitude;pressure_sealevel;temperature;humidity
36258;BME280;22294;52.044;4.582;2022-11-20T00:02:08;78264.44;;;-144.37;89.99
36258;BME280;22294;52.044;4.582;2022-11-20T00:04:33;78262.38;;;-144.37;90.48
36258;BME280;22294;52.044;4.582;2022-11-20T00:06:58;78256.25;;;-144.37;90.71
36258;BME280;22294;52.044;4.582;2022-11-20T00:09:23;78252.16;;;-144.37;91.31
36258;BME280;22294;52.044;4.582;2022-11-20T00:11:49;78246.03;;;-144.37;90.84
36258;BME280;22294;52.044;4.582;2022-11-20T00:14:14;78254.19;;;-144.37;90.42
36258;BME280;22294;52.044;4.582;2022-11-20T00:16:39;78254.19;;;-144.37;90.36
36258;BME280;22294;52.044;4.582;2022-11-20T00:19:04;78248.06;;;-144.37;90.15
36258;BME280;22294;52.044;4.582;2022-11-20T00:21:30;78243.97;;;-144.37;90.01
36258;BME280;22294;52.044;4.582;2022-11-20T00:23:57;78235.78;;;-144.37;90.24
36258;BME280;22294;52.044;4.582;2022-11-20T00:26:24;78237.84;;;-144.37;90.18
36258;BME280;22294;52.044;4.582;2022-11-20T00:28:57;78231.69;;;-144.37;90.60
36258;BME280;22294;52.044;4.582;2022-11-20T00:31:23;78237.84;;;-144.37;89.87
36258;BME280;22294;52.044;4.582;2022-11-20T00:33:49;78250.09;;;-144.37;89.71
36258;BME280;22294;52.044;4.582;2022-11-20T00:36:25;78243.97;;;-144.37;89.91
36258;BME280;22294;52.044;4.582;2022-11-20T00:38:52;78256.25;;;-144.37;89.78
36258;BME280;22294;52.044;4.582;2022-11-20T00:41:18;78264.44;;;-144.37;89.64
36258;BME280;22294;52.044;4.582;2022-11-20T00:43:43;78272.63;;;-144.37;89.80
36258;BME280;22294;52.044;4.582;2022-11-20T00:46:13;78260.34;;;-144.37;90.37
36258;BME280;22294;52.044;4.582;2022-11-20T00:48:38;78243.97;;;-144.37;90.60
36258;BME280;22294;52.044;4.582;2022-11-20T00:51:04;78243.97;;;-144.37;89.29
36258;BME280;22294;52.044;4.582;2022-11-20T00:53:29;78243.97;;;-144.37;89.16
36258;BME280;22294;52.044;4.582;2022-11-20T00:55:57;78246.03;;;-144.37;89.63
36258;BME280;22294;52.044;4.582;2022-11-20T00:58:24;78231.69;;;-144.37;90.42
36258;BME280;22294;52.044;4.582;2022-11-20T01:00:50;78229.66;;;-144.37;91.34
36258;BME280;22294;52.044;4.582;2022-11-20T01:03:16;78239.88;;;-144.37;90.70
36258;BME280;22294;52.044;4.582;2022-11-20T01:05:42;78248.06;;;-144.37;89.58
36258;BME280;22294;52.044;4.582;2022-11-20T01:08:08;78246.03;;;-144.37;90.65
36258;BME280;22294;52.044;4.582;2022-11-20T01:10:33;78246.03;;;-144.37;90.13
36258;BME280;22294;52.044;4.582;2022-11-20T01:12:58;78256.25;;;-144.37;89.83
36258;BME280;22294;52.044;4.582;2022-11-20T01:15:42;78266.47;;;-144.37;90.07
36258;BME280;22294;52.044;4.582;2022-11-20T01:18:07;78260.34;;;-144.37;90.23
36258;BME280;22294;52.044;4.582;2022-11-20T01:20:36;78264.44;;;-144.37;90.46
36258;BME280;22294;52.044;4.582;2022-11-20T01:23:03;78258.28;;;-144.37;90.83
36258;BME280;22294;52.044;4.582;2022-11-20T01:25:28;78250.09;;;-144.37;90.91
36258;BME280;22294;52.044;4.582;2022-11-20T01:27:53;78250.09;;;-144.37;91.07
36258;BME280;22294;52.044;4.582;2022-11-20T01:30:19;78256.25;;;-144.37;89.98
36258;BME280;22294;52.044;4.582;2022-11-20T01:32:44;78248.06;;;-144.37;91.25
36258;BME280;22294;52.044;4.582;2022-11-20T01:35:11;78248.06;;;-144.37;91.48
36258;BME280;22294;52.044;4.582;2022-11-20T01:37:36;78252.16;;;-144.37;91.54
36258;BME280;22294;52.044;4.582;2022-11-20T01:40:01;78256.25;;;-144.37;91.94
36258;BME280;22294;52.044;4.582;2022-11-20T01:42:27;78254.19;;;-144.37;92.20
36258;BME280;22294;52.044;4.582;2022-11-20T01:48:14;78262.38;;;-144.37;91.06
36258;BME280;22294;52.044;4.582;2022-11-20T01:50:40;78256.25;;;-144.37;91.60
36258;BME280;22294;52.044;4.582;2022-11-20T01:53:10;78264.44;;;-144.37;91.90
36258;BME280;22294;52.044;4.582;2022-11-20T01:55:48;78268.53;;;-144.37;92.39
36258;BME280;22294;52.044;4.582;2022-11-20T01:58:15;78278.75;;;-144.37;91.52
36258;BME280;22294;52.044;4.582;2022-11-20T02:00:41;78272.63;;;-144.37;91.91
36258;BME280;22294;52.044;4.582;2022-11-20T02:03:11;78268.53;;;-144.37;92.19
36258;BME280;22294;52.044;4.582;2022-11-20T02:08:28;78264.44;;;-144.37;91.45
36258;BME280;22294;52.044;4.582;2022-11-20T02:10:53;78272.63;;;-144.37;90.97
36258;BME280;22294;52.044;4.582;2022-11-20T02:13:19;78284.91;;;-144.37;91.30
36258;BME280;22294;52.044;4.582;2022-11-20T02:16:03;78278.75;;;-144.37;91.37
36258;BME280;22294;52.044;4.582;2022-11-20T02:18:29;78286.94;;;-144.37;91.36
36258;BME280;22294;52.044;4.582;2022-11-20T02:21:02;78286.94;;;-144.37;90.76
36258;BME280;22294;52.044;4.582;2022-11-20T02:23:36;78293.09;;;-144.37;90.95
36258;BME280;22294;52.044;4.582;2022-11-20T02:26:06;78315.59;;;-144.37;90.72
36258;BME280;22294;52.044;4.582;2022-11-20T02:28:32;78331.97;;;-144.37;91.29
36258;BME280;22294;52.044;4.582;2022-11-20T02:30:58;78327.88;;;-144.37;91.85
36258;BME280;22294;52.044;4.582;2022-11-20T02:33:23;78315.59;;;-144.37;92.94
36258;BME280;22294;52.044;4.582;2022-11-20T02:35:49;78311.50;;;-144.37;92.73
36258;BME280;22294;52.044;4.582;2022-11-20T02:38:14;78325.81;;;-144.37;91.99
36258;BME280;22294;52.044;4.582;2022-11-20T02:40:41;78329.91;;;-144.37;91.84
36258;BME280;22294;52.044;4.582;2022-11-20T02:43:06;78317.63;;;-144.37;92.66
36258;BME280;22294;52.044;4.582;2022-11-20T02:45:32;78303.31;;;-144.37;93.17
36258;BME280;22294;52.044;4.582;2022-11-20T02:47:58;78305.34;;;-144.37;92.08
36258;BME280;22294;52.044;4.582;2022-11-20T02:50:23;78307.41;;;-144.37;91.98
36258;BME280;22294;52.044;4.582;2022-11-20T02:52:48;78317.63;;;-144.37;91.25
36258;BME280;22294;52.044;4.582;2022-11-20T02:55:14;78321.72;;;-144.37;91.40
36258;BME280;22294;52.044;4.582;2022-11-20T02:57:39;78319.69;;;-144.37;91.97
36258;BME280;22294;52.044;4.582;2022-11-20T03:00:05;78311.50;;;-144.37;92.46
36258;BME280;22294;52.044;4.582;2022-11-20T03:02:32;78291.03;;;-144.37;92.81
36258;BME280;22294;52.044;4.582;2022-11-20T03:04:58;78299.22;;;-144.37;92.11
36258;BME280;22294;52.044;4.582;2022-11-20T03:07:23;78307.41;;;-144.37;92.22
36258;BME280;22294;52.044;4.582;2022-11-20T03:09:49;78327.88;;;-144.37;93.02
36258;BME280;22294;52.044;4.582;2022-11-20T03:12:14;78334.00;;;-144.37;93.86
36258;BME280;22294;52.044;4.582;2022-11-20T03:14:39;78327.88;;;-144.37;94.22
36258;BME280;22294;52.044;4.582;2022-11-20T03:17:04;78323.78;;;-144.37;94.32
36258;BME280;22294;52.044;4.582;2022-11-20T03:19:30;78321.72;;;-144.37;95.20
36258;BME280;22294;52.044;4.582;2022-11-20T03:21:55;78313.53;;;-144.37;96.52
36258;BME280;22294;52.044;4.582;2022-11-20T03:24:20;78327.88;;;-144.37;97.48
36258;BME280;22294;52.044;4.582;2022-11-20T03:26:46;78336.06;;;-144.37;98.76
36258;BME280;22294;52.044;4.582;2022-11-20T03:29:11;78319.69;;;-144.37;99.94
36258;BME280;22294;52.044;4.582;2022-11-20T03:31:39;78297.19;;;-144.37;99.65
36258;BME280;22294;52.044;4.582;2022-11-20T03:34:09;78293.09;;;-144.37;98.49
36258;BME280;22294;52.044;4.582;2022-11-20T03:36:35;78284.91;;;-144.37;97.57
36258;BME280;22294;52.044;4.582;2022-11-20T03:39:02;78280.81;;;-144.37;96.97
36258;BME280;22294;52.044;4.582;2022-11-20T03:41:29;78278.75;;;-144.37;96.18
36258;BME280;22294;52.044;4.582;2022-11-20T03:44:00;78268.53;;;-144.37;95.54
36258;BME280;22294;52.044;4.582;2022-11-20T03:46:27;78264.44;;;-144.37;94.77
36258;BME280;22294;52.044;4.582;2022-11-20T03:48:53;78260.34;;;-144.37;94.50
36258;BME280;22294;52.044;4.582;2022-11-20T03:51:21;78254.19;;;-144.37;94.08
36258;BME280;22294;52.044;4.582;2022-11-20T03:53:48;78243.97;;;-144.37;94.52
36258;BME280;22294;52.044;4.582;2022-11-20T03:56:16;78256.25;;;-144.37;94.35
36258;BME280;22294;52.044;4.582;2022-11-20T03:58:42;78258.28;;;-144.37;94.88
36258;BME280;22294;52.044;4.582;2022-11-20T04:01:09;78256.25;;;-144.37;94.60
36258;BME280;22294;52.044;4.582;2022-11-20T04:03:36;78266.47;;;-144.37;93.68
36258;BME280;22294;52.044;4.582;2022-11-20T04:06:07;78266.47;;;-144.37;93.47
36258;BME280;22294;52.044;4.582;2022-11-20T04:08:33;78262.38;;;-144.37;93.50
36258;BME280;22294;52.044;4.582;2022-11-20T04:11:12;78250.09;;;-144.37;93.18
36258;BME280;22294;52.044;4.582;2022-11-20T04:13:39;78243.97;;;-144.37;93.64
36258;BME280;22294;52.044;4.582;2022-11-20T04:16:06;78223.50;;;-144.37;93.97
36258;BME280;22294;52.044;4.582;2022-11-20T04:18:32;78221.47;;;-144.37;93.97
36258;BME280;22294;52.044;4.582;2022-11-20T04:20:58;78215.31;;;-144.37;94.32
36258;BME280;22294;52.044;4.582;2022-11-20T04:23:24;78209.19;;;-144.37;94.17
36258;BME280;22294;52.044;4.582;2022-11-20T04:25:50;78205.09;;;-144.37;94.50
36258;BME280;22294;52.044;4.582;2022-11-20T04:28:15;78207.13;;;-144.37;94.30
36258;BME280;22294;52.044;4.582;2022-11-20T04:30:40;78201.00;;;-144.37;94.24
36258;BME280;22294;52.044;4.582;2022-11-20T04:33:06;78201.00;;;-144.37;94.34
36258;BME280;22294;52.044;4.582;2022-11-20T04:35:34;78201.00;;;-144.37;94.05
36258;BME280;22294;52.044;4.582;2022-11-20T04:37:59;78194.88;;;-144.37;94.00
36258;BME280;22294;52.044;4.582;2022-11-20T04:40:24;78196.91;;;-144.37;93.86
36258;BME280;22294;52.044;4.582;2022-11-20T04:42:50;78196.91;;;-144.37;93.63
36258;BME280;22294;52.044;4.582;2022-11-20T04:45:15;78190.78;;;-144.37;93.11
36258;BME280;22294;52.044;4.582;2022-11-20T04:47:40;78190.78;;;-144.37;93.12
36258;BME280;22294;52.044;4.582;2022-11-20T04:50:06;78186.69;;;-144.37;93.06
36258;BME280;22294;52.044;4.582;2022-11-20T04:52:31;78186.69;;;-144.37;92.80
36258;BME280;22294;52.044;4.582;2022-11-20T04:54:56;78190.78;;;-144.37;92.36
36258;BME280;22294;52.044;4.582;2022-11-20T04:57:22;78188.72;;;-144.37;91.38
36258;BME280;22294;52.044;4.582;2022-11-20T04:59:47;78182.59;;;-144.37;91.72
36258;BME280;22294;52.044;4.582;2022-11-20T05:02:12;78186.69;;;-144.37;90.89
36258;BME280;22294;52.044;4.582;2022-11-20T05:04:37;78176.44;;;-144.37;90.45
36258;BME280;22294;52.044;4.582;2022-11-20T05:07:03;78180.53;;;-144.37;90.44
36258;BME280;22294;52.044;4.582;2022-11-20T05:09:29;78180.53;;;-144.37;90.07
36258;BME280;22294;52.044;4.582;2022-11-20T05:11:54;78182.59;;;-144.37;90.61
36258;BME280;22294;52.044;4.582;2022-11-20T05:14:19;78178.50;;;-144.37;90.11
36258;BME280;22294;52.044;4.582;2022-11-20T05:16:45;78182.59;;;-144.37;90.36
36258;BME280;22294;52.044;4.582;2022-11-20T05:19:10;78190.78;;;-144.37;90.10
36258;BME280;22294;52.044;4.582;2022-11-20T05:21:35;78186.69;;;-144.37;89.86
36258;BME280;22294;52.044;4.582;2022-11-20T05:24:01;78182.59;;;-144.37;90.11
36258;BME280;22294;52.044;4.582;2022-11-20T05:26:26;78188.72;;;-144.37;90.27
36258;BME280;22294;52.044;4.582;2022-11-20T05:28:51;78201.00;;;-144.37;89.59
36258;BME280;22294;52.044;4.582;2022-11-20T05:31:19;78205.09;;;-144.37;89.83
36258;BME280;22294;52.044;4.582;2022-11-20T05:33:45;78198.97;;;-144.37;90.24
36258;BME280;22294;52.044;4.582;2022-11-20T05:36:12;78184.63;;;-144.37;90.54
36258;BME280;22294;52.044;4.582;2022-11-20T05:38:38;78182.59;;;-144.37;90.36
36258;BME280;22294;52.044;4.582;2022-11-20T05:41:18;78184.63;;;-144.37;90.24
36258;BME280;22294;52.044;4.582;2022-11-20T05:43:44;78176.44;;;-144.37;90.89
36258;BME280;22294;52.044;4.582;2022-11-20T05:46:12;78168.25;;;-144.37;90.85
36258;BME280;22294;52.044;4.582;2022-11-20T05:48:40;78164.16;;;-144.37;90.81
36258;BME280;22294;52.044;4.582;2022-11-20T05:51:08;78162.13;;;-144.37;90.24
36258;BME280;22294;52.044;4.582;2022-11-20T05:53:34;78166.22;;;-144.37;90.71
36258;BME280;22294;52.044;4.582;2022-11-20T05:56:20;78153.94;;;-144.37;90.96
36258;BME280;22294;52.044;4.582;2022-11-20T05:58:46;78153.94;;;-144.37;91.15
36258;BME280;22294;52.044;4.582;2022-11-20T06:01:20;78162.13;;;-144.37;91.26
36258;BME280;22294;52.044;4.582;2022-11-20T06:03:46;78158.03;;;-144.37;90.65
36258;BME280;22294;52.044;4.582;2022-11-20T06:06:16;78151.91;;;-144.37;90.92
36258;BME280;22294;52.044;4.582;2022-11-20T06:08:43;78143.72;;;-144.37;91.43
36258;BME280;22294;52.044;4.582;2022-11-20T06:11:10;78149.84;;;-144.37;91.49
36258;BME280;22294;52.044;4.582;2022-11-20T06:13:36;78145.75;;;-144.37;91.60
36258;BME280;22294;52.044;4.582;2022-11-20T06:16:02;78137.56;;;-144.37;92.28
36258;BME280;22294;52.044;4.582;2022-11-20T06:18:29;78145.75;;;-144.37;91.99
36258;BME280;22294;52.044;4.582;2022-11-20T06:21:02;78147.81;;;-144.37;92.26
36258;BME280;22294;52.044;4.582;2022-11-20T06:23:32;78151.91;;;-144.37;92.54
36258;BME280;22294;52.044;4.582;2022-11-20T06:26:02;78147.81;;;-144.37;92.94
36258;BME280;22294;52.044;4.582;2022-11-20T06:28:27;78141.66;;;-144.37;93.00
36258;BME280;22294;52.044;4.582;2022-11-20T06:30:53;78139.63;;;-144.37;93.49
36258;BME280;22294;52.044;4.582;2022-11-20T06:33:18;78141.66;;;-144.37;93.58
36258;BME280;22294;52.044;4.582;2022-11-20T06:35:43;78155.97;;;-144.37;94.17
36258;BME280;22294;52.044;4.582;2022-11-20T06:38:09;78155.97;;;-144.37;94.48
36258;BME280;22294;52.044;4.582;2022-11-20T06:40:34;78145.75;;;-144.37;94.50
36258;BME280;22294;52.044;4.582;2022-11-20T06:42:59;78147.81;;;-144.37;94.88
36258;BME280;22294;52.044;4.582;2022-11-20T06:45:25;78149.84;;;-144.37;94.74
36258;BME280;22294;52.044;4.582;2022-11-20T06:47:50;78153.94;;;-144.37;94.87
36258;BME280;22294;52.044;4.582;2022-11-20T06:50:15;78135.53;;;-144.37;95.28
36258;BME280;22294;52.044;4.582;2022-11-20T06:52:40;78135.53;;;-144.37;94.98
36258;BME280;22294;52.044;4.582;2022-11-20T06:55:06;78123.25;;;-144.37;95.20
36258;BME280;22294;52.044;4.582;2022-11-20T06:57:32;78119.16;;;-144.37;95.39
36258;BME280;22294;52.044;4.582;2022-11-20T06:59:57;78108.94;;;-144.37;95.59
36258;BME280;22294;52.044;4.582;2022-11-20T07:02:22;78100.75;;;-144.37;95.53
36258;BME280;22294;52.044;4.582;2022-11-20T07:04:47;78100.75;;;-144.37;95.85
36258;BME280;22294;52.044;4.582;2022-11-20T07:07:13;78086.41;;;-144.37;95.88
36258;BME280;22294;52.044;4.582;2022-11-20T07:09:38;78078.22;;;-144.37;95.67
36258;BME280;22294;52.044;4.582;2022-11-20T07:12:03;78076.19;;;-144.37;95.50
36258;BME280;22294;52.044;4.582;2022-11-20T07:14:29;78070.03;;;-144.37;95.59
36258;BME280;22294;52.044;4.582;2022-11-20T07:16:54;78053.69;;;-144.37;95.64
36258;BME280;22294;52.044;4.582;2022-11-20T07:19:20;78041.41;;;-144.37;95.29
36258;BME280;22294;52.044;4.582;2022-11-20T07:21:45;78035.25;;;-144.37;95.35
36258;BME280;22294;52.044;4.582;2022-11-20T07:24:10;78027.06;;;-144.37;95.09
36258;BME280;22294;52.044;4.582;2022-11-20T07:26:35;78029.13;;;-144.37;94.81
36258;BME280;22294;52.044;4.582;2022-11-20T07:29:01;78022.97;;;-144.37;95.23
36258;BME280;22294;52.044;4.582;2022-11-20T07:31:26;78022.97;;;-144.37;94.63
36258;BME280;22294;52.044;4.582;2022-11-20T07:33:51;78020.94;;;-144.37;94.98
36258;BME280;22294;52.044;4.582;2022-11-20T07:36:16;78014.81;;;-144.37;94.60
36258;BME280;22294;52.044;4.582;2022-11-20T07:38:42;78004.56;;;-144.37;94.55
36258;BME280;22294;52.044;4.582;2022-11-20T07:41:07;78012.75;;;-144.37;94.35
36258;BME280;22294;52.044;4.582;2022-11-20T07:43:32;78020.94;;;-144.37;94.48
36258;BME280;22294;52.044;4.582;2022-11-20T07:45:58;78012.75;;;-144.37;94.70
36258;BME280;22294;52.044;4.582;2022-11-20T07:48:24;78002.53;;;-144.37;94.24
36258;BME280;22294;52.044;4.582;2022-11-20T07:50:53;78006.63;;;-144.37;94.58
36258;BME280;22294;52.044;4.582;2022-11-20T07:53:18;77996.38;;;-144.37;94.16
36258;BME280;22294;52.044;4.582;2022-11-20T07:55:46;77988.19;;;-144.37;94.08
36258;BME280;22294;52.044;4.582;2022-11-20T07:58:11;77977.97;;;-144.37;94.13
36258;BME280;22294;52.044;4.582;2022-11-20T08:00:36;77992.28;;;-144.37;93.56
36258;BME280;22294;52.044;4.582;2022-11-20T08:03:05;77992.28;;;-144.37;93.70
36258;BME280;22294;52.044;4.582;2022-11-20T08:05:31;77994.34;;;-144.37;93.48
36258;BME280;22294;52.044;4.582;2022-11-20T08:07:56;77990.25;;;-144.37;93.26
36258;BME280;22294;52.044;4.582;2022-11-20T08:10:21;77982.06;;;-144.37;93.28
36258;BME280;22294;52.044;4.582;2022-11-20T08:12:48;77986.16;;;-144.37;93.46
36258;BME280;22294;52.044;4.582;2022-11-20T08:15:33;77988.19;;;-144.37;93.50
36258;BME280;22294;52.044;4.582;2022-11-20T08:18:03;77973.88;;;-144.37;93.81
36258;BME280;22294;52.044;4.582;2022-11-20T08:20:28;77994.34;;;-144.37;93.38
36258;BME280;22294;52.044;4.582;2022-11-20T08:22:58;77984.09;;;-144.37;94.41
36258;BME280;22294;52.044;4.582;2022-11-20T08:25:25;77990.25;;;-144.37;94.94
36258;BME280;22294;52.044;4.582;2022-11-20T08:27:50;77996.38;;;-144.37;94.55
36258;BME280;22294;52.044;4.582;2022-11-20T08:30:15;78000.47;;;-144.37;95.24
36258;BME280;22294;52.044;4.582;2022-11-20T08:32:40;77988.19;;;-144.37;95.56
36258;BME280;22294;52.044;4.582;2022-11-20T08:35:06;77988.19;;;-144.37;95.58
36258;BME280;22294;52.044;4.582;2022-11-20T08:37:31;77975.94;;;-144.37;95.43
36258;BME280;22294;52.044;4.582;2022-11-20T08:39:56;77971.84;;;-144.37;95.55
36258;BME280;22294;52.044;4.582;2022-11-20T08:42:22;77957.50;;;-144.37;95.55
36258;BME280;22294;52.044;4.582;2022-11-20T08:44:47;77951.38;;;-144.37;95.67
36258;BME280;22294;52.044;4.582;2022-11-20T08:47:12;77939.09;;;-144.37;95.86
36258;BME280;22294;52.044;4.582;2022-11-20T08:49:38;77939.09;;;-144.37;95.51
36258;BME280;22294;52.044;4.582;2022-11-20T08:52:03;77937.06;;;-144.37;95.20
36258;BME280;22294;52.044;4.582;2022-11-20T08:54:28;77926.81;;;-144.37;95.30
36258;BME280;22294;52.044;4.582;2022-11-20T08:56:53;77928.88;;;-144.37;95.33
36258;BME280;22294;52.044;4.582;2022-11-20T08:59:19;77912.50;;;-144.37;95.64
36258;BME280;22294;52.044;4.582;2022-11-20T09:01:44;77910.44;;;-144.37;95.79
36258;BME280;22294;52.044;4.582;2022-11-20T09:04:09;77894.09;;;-144.37;95.60
36258;BME280;22294;52.044;4.582;2022-11-20T09:06:36;77879.75;;;-144.37;95.14
36258;BME280;22294;52.044;4.582;2022-11-20T09:09:02;77875.66;;;-144.37;94.90
36258;BME280;22294;52.044;4.582;2022-11-20T09:11:27;77869.53;;;-144.37;94.88
36258;BME280;22294;52.044;4.582;2022-11-20T09:13:52;77865.44;;;-144.37;94.82
36258;BME280;22294;52.044;4.582;2022-11-20T09:16:18;77857.25;;;-144.37;94.51
36258;BME280;22294;52.044;4.582;2022-11-20T09:18:43;77853.16;;;-144.37;94.95
36258;BME280;22294;52.044;4.582;2022-11-20T09:21:11;77844.97;;;-144.37;95.08
36258;BME280;22294;52.044;4.582;2022-11-20T09:23:37;77842.94;;;-144.37;95.17
36258;BME280;22294;52.044;4.582;2022-11-20T09:26:09;77832.69;;;-144.37;95.41
36258;BME280;22294;52.044;4.582;2022-11-20T09:28:34;77818.38;;;-144.37;95.58
36258;BME280;22294;52.044;4.582;2022-11-20T09:30:59;77818.38;;;-144.37;95.76
36258;BME280;22294;52.044;4.582;2022-11-20T09:33:25;77810.19;;;-144.37;95.86
36258;BME280;22294;52.044;4.582;2022-11-20T09:35:51;77797.91;;;-144.37;95.53
36258;BME280;22294;52.044;4.582;2022-11-20T09:38:16;77797.91;;;-144.37;96.23
36258;BME280;22294;52.044;4.582;2022-11-20T09:40:57;77777.47;;;-144.37;96.29
36258;BME280;22294;52.044;4.582;2022-11-20T09:43:37;77769.28;;;-144.37;96.64
36258;BME280;22294;52.044;4.582;2022-11-20T09:46:29;77761.09;;;-144.37;96.84
36258;BME280;22294;52.044;4.582;2022-11-20T09:51:39;77754.97;;;-144.37;97.23
36258;BME280;22294;52.044;4.582;2022-11-20T09:56:37;77722.22;;;-144.37;97.59
36258;BME280;22294;52.044;4.582;2022-11-20T09:59:06;77718.13;;;-144.37;97.53
36258;BME280;22294;52.044;4.582;2022-11-20T10:01:36;77701.75;;;-144.37;97.76
36258;BME280;22294;52.044;4.582;2022-11-20T10:04:15;77687.44;;;-144.37;97.91
36258;BME280;22294;52.044;4.582;2022-11-20T10:09:34;77673.13;;;-144.37;98.07
36258;BME280;22294;52.044;4.582;2022-11-20T10:12:27;77677.22;;;-144.37;98.97
36258;BME280;22294;52.044;4.582;2022-11-20T10:17:40;77669.03;;;-144.37;100.00
36258;BME280;22294;52.044;4.582;2022-11-20T10:20:27;77675.16;;;-144.37;100.00
36258;BME280;22294;52.044;4.582;2022-11-20T10:25:38;77666.97;;;-144.37;100.00
36258;BME280;22294;52.044;4.582;2022-11-20T10:28:17;77664.94;;;-144.37;100.00
36258;BME280;22294;52.044;4.582;2022-11-20T10:30:55;77664.94;;;-144.37;100.00
36258;BME280;22294;52.044;4.582;2022-11-20T10:33:23;77654.69;;;-144.37;100.00
36258;BME280;22294;52.044;4.582;2022-11-20T10:38:35;77626.06;;;-144.37;100.00
36258;BME280;22294;52.044;4.582;2022-11-20T10:41:05;77607.66;;;-144.37;100.00
36258;BME280;22294;52.044;4.582;2022-11-20T10:46:39;77597.41;;;-144.37;100.00
36258;BME280;22294;52.044;4.582;2022-11-20T10:49:14;77595.38;;;-144.37;100.00
36258;BME280;22294;52.044;4.582;2022-11-20T10:52:00;77585.13;;;-144.37;100.00
36258;BME280;22294;52.044;4.582;2022-11-20T10:54:55;77568.78;;;-144.37;100.00
36258;BME280;22294;52.044;4.582;2022-11-20T10:57:52;77570.81;;;-144.37;100.00
36258;BME280;22294;52.044;4.582;2022-11-20T11:00:19;77558.53;;;-144.37;100.00
36258;BME280;22294;52.044;4.582;2022-11-20T11:02:48;77558.53;;;-144.37;100.00
36258;BME280;22294;52.044;4.582;2022-11-20T11:05:24;77546.28;;;-144.37;100.00
36258;BME280;22294;52.044;4.582;2022-11-20T11:07:54;77540.13;;;-144.37;100.00
36258;BME280;22294;52.044;4.582;2022-11-20T11:10:28;77542.19;;;-144.37;100.00
36258;BME280;22294;52.044;4.582;2022-11-20T11:12:56;77536.03;;;-144.37;100.00
36258;BME280;22294;52.044;4.582;2022-11-20T11:15:27;77540.13;;;-144.37;100.00
36258;BME280;22294;52.044;4.582;2022-11-20T11:17:53;77536.03;;;-144.37;100.00
36258;BME280;22294;52.044;4.582;2022-11-20T11:20:24;77521.72;;;-144.37;100.00
36258;BME280;22294;52.044;4.582;2022-11-20T11:22:57;77517.63;;;-144.37;100.00
36258;BME280;22294;52.044;4.582;2022-11-20T11:25:33;77515.59;;;-144.37;100.00
36258;BME280;22294;52.044;4.582;2022-11-20T11:28:21;77495.13;;;-144.37;100.00
36258;BME280;22294;52.044;4.582;2022-11-20T11:30:47;77495.13;;;-144.37;100.00
36258;BME280;22294;52.044;4.582;2022-11-20T11:35:50;77468.53;;;-144.37;100.00
36258;BME280;22294;52.044;4.582;2022-11-20T11:38:29;77470.56;;;-144.37;100.00
36258;BME280;22294;52.044;4.582;2022-11-20T11:40:56;77456.25;;;-144.37;100.00
36258;BME280;22294;52.044;4.582;2022-11-20T11:43:24;77439.88;;;-144.37;100.00
36258;BME280;22294;52.044;4.582;2022-11-20T11:46:28;77435.78;;;-144.37;100.00
36258;BME280;22294;52.044;4.582;2022-11-20T11:49:13;77417.38;;;-144.37;100.00
36258;BME280;22294;52.044;4.582;2022-11-20T11:51:56;77405.09;;;-144.37;100.00
36258;BME280;22294;52.044;4.582;2022-11-20T11:54:30;77390.78;;;-144.37;100.00
36258;BME280;22294;52.044;4.582;2022-11-20T11:57:00;77380.56;;;-144.37;100.00
36258;BME280;22294;52.044;4.582;2022-11-20T11:59:52;77376.47;;;-144.37;100.00
36258;BME280;22294;52.044;4.582;2022-11-20T12:02:35;77368.28;;;-144.37;100.00
36258;BME280;22294;52.044;4.582;2022-11-20T12:05:24;77376.47;;;-144.37;100.00
36258;BME280;22294;52.044;4.582;2022-11-20T12:07:58;77376.47;;;-144.37;100.00
36258;BME280;22294;52.044;4.582;2022-11-20T12:15:49;77372.38;;;-144.37;100.00
36258;BME280;22294;52.044;4.582;2022-11-20T12:18:18;77356.00;;;-144.37;100.00
36258;BME280;22294;52.044;4.582;2022-11-20T12:23:35;77333.50;;;-144.37;100.00
36258;BME280;22294;52.044;4.582;2022-11-20T12:26:14;77331.47;;;-144.37;100.00
36258;BME280;22294;52.044;4.582;2022-11-20T12:37:46;77325.31;;;-144.37;100.00
36258;BME280;22294;52.044;4.582;2022-11-20T12:43:19;77302.81;;;-144.37;100.00
36258;BME280;22294;52.044;4.582;2022-11-20T12:49:18;77292.59;;;-144.37;100.00
36258;BME280;22294;52.044;4.582;2022-11-20T12:52:15;77298.72;;;-144.37;100.00
36258;BME280;22294;52.044;4.582;2022-11-20T12:55:06;77288.50;;;-144.37;100.00
36258;BME280;22294;52.044;4.582;2022-11-20T13:00:14;77268.03;;;-144.37;100.00
36258;BME280;22294;52.044;4.582;2022-11-20T13:02:58;77276.22;;;-144.37;100.00
36258;BME280;22294;52.044;4.582;2022-11-20T13:05:52;77257.81;;;-144.37;100.00
36258;BME280;22294;52.044;4.582;2022-11-20T13:08:27;77255.78;;;-144.37;100.00
36258;BME280;22294;52.044;4.582;2022-11-20T13:11:27;77243.50;;;-144.37;100.00
36258;BME280;22294;52.044;4.582;2022-11-20T13:19:03;77216.91;;;-144.37;100.00
36258;BME280;22294;52.044;4.582;2022-11-20T13:21:37;77212.81;;;-144.37;100.00
36258;BME280;22294;52.044;4.582;2022-11-20T13:24:07;77206.66;;;-144.37;100.00
36258;BME280;22294;52.044;4.582;2022-11-20T13:26:32;77204.63;;;-144.37;100.00
36258;BME280;22294;52.044;4.582;2022-11-20T13:29:03;77198.50;;;-144.37;100.00
36258;BME280;22294;52.044;4.582;2022-11-20T13:31:34;77196.44;;;-144.37;100.00
36258;BME280;22294;52.044;4.582;2022-11-20T13:34:03;77186.22;;;-144.37;100.00
36258;BME280;22294;52.044;4.582;2022-11-20T13:36:30;77186.22;;;-144.37;100.00
36258;BME280;22294;52.044;4.582;2022-11-20T13:38:59;77180.06;;;-144.37;100.00
36258;BME280;22294;52.044;4.582;2022-11-20T13:41:35;77180.06;;;-144.37;100.00
36258;BME280;22294;52.044;4.582;2022-11-20T13:44:14;77165.75;;;-144.37;100.00
36258;BME280;22294;52.044;4.582;2022-11-20T13:46:47;77165.75;;;-144.37;100.00